sensor_id;sensor_type;location;lat;lon;timestamp;P1;durP1;ratioP1;P2;durP2;ratioP2
20511;SDS011;10414;52.074;5.126;2024-02-21T00:00:53;13.70;;;2.85;;
20511;SDS011;10414;52.074;5.126;2024-02-21T00:03:20;9.85;;;2.58;;
20511;SDS011;10414;52.074;5.126;2024-02-21T00:05:47;12.85;;;2.90;;
20511;SDS011;10414;52.074;5.126;2024-02-21T00:08:14;8.82;;;2.90;;
20511;SDS011;10414;52.074;5.126;2024-02-21T00:10:41;11.13;;;2.53;;
20511;SDS011;10414;52.074;5.126;2024-02-21T00:13:09;12.48;;;2.75;;
20511;SDS011;10414;52.074;5.126;2024-02-21T00:15:36;10.27;;;2.38;;
20511;SDS011;10414;52.074;5.126;2024-02-21T00:18:03;12.52;;;3.25;;
20511;SDS011;10414;52.074;5.126;2024-02-21T00:20:30;6.90;;;2.72;;
20511;SDS011;10414;52.074;5.126;2024-02-21T00:22:57;9.98;;;2.90;;
20511;SDS011;10414;52.074;5.126;2024-02-21T00:25:24;8.68;;;2.60;;
20511;SDS011;10414;52.074;5.126;2024-02-21T00:27:51;12.55;;;2.95;;
20511;SDS011;10414;52.074;5.126;2024-02-21T00:30:20;10.93;;;2.75;;
20511;SDS011;10414;52.074;5.126;2024-02-21T00:32:47;15.02;;;3.28;;
20511;SDS011;10414;52.074;5.126;2024-02-21T00:35:14;11.43;;;2.67;;
20511;SDS011;10414;52.074;5.126;2024-02-21T00:37:40;14.23;;;2.95;;
20511;SDS011;10414;52.074;5.126;2024-02-21T00:40:07;9.98;;;2.50;;
20511;SDS011;10414;52.074;5.126;2024-02-21T00:42:35;12.95;;;2.88;;
20511;SDS011;10414;52.074;5.126;2024-02-21T00:45:02;11.38;;;2.60;;
20511;SDS011;10414;52.074;5.126;2024-02-21T00:47:31;11.35;;;2.58;;
20511;SDS011;10414;52.074;5.126;2024-02-21T00:49:58;9.68;;;2.95;;
20511;SDS011;10414;52.074;5.126;2024-02-21T00:52:25;15.07;;;2.80;;
20511;SDS011;10414;52.074;5.126;2024-02-21T00:54:52;8.70;;;2.20;;
20511;SDS011;10414;52.074;5.126;2024-02-21T00:57:19;10.60;;;2.78;;
20511;SDS011;10414;52.074;5.126;2024-02-21T00:59:45;11.05;;;2.88;;
20511;SDS011;10414;52.074;5.126;2024-02-21T01:02:12;9.43;;;2.88;;
20511;SDS011;10414;52.074;5.126;2024-02-21T01:04:40;9.75;;;2.72;;
20511;SDS011;10414;52.074;5.126;2024-02-21T01:07:07;10.38;;;2.67;;
20511;SDS011;10414;52.074;5.126;2024-02-21T01:09:34;10.93;;;2.38;;
20511;SDS011;10414;52.074;5.126;2024-02-21T01:12:01;12.45;;;2.97;;
20511;SDS011;10414;52.074;5.126;2024-02-21T01:14:28;11.18;;;2.97;;
20511;SDS011;10414;52.074;5.126;2024-02-21T01:16:55;9.50;;;2.47;;
20511;SDS011;10414;52.074;5.126;2024-02-21T01:19:21;9.85;;;2.72;;
20511;SDS011;10414;52.074;5.126;2024-02-21T01:21:50;9.85;;;2.35;;
20511;SDS011;10414;52.074;5.126;2024-02-21T01:24:16;11.95;;;2.80;;
20511;SDS011;10414;52.074;5.126;2024-02-21T01:26:43;11.75;;;2.72;;
20511;SDS011;10414;52.074;5.126;2024-02-21T01:29:11;10.65;;;2.78;;
20511;SDS011;10414;52.074;5.126;2024-02-21T01:31:38;13.30;;;3.10;;
20511;SDS011;10414;52.074;5.126;2024-02-21T01:34:05;10.02;;;2.70;;
20511;SDS011;10414;52.074;5.126;2024-02-21T01:36:31;23.00;;;3.65;;
20511;SDS011;10414;52.074;5.126;2024-02-21T01:39:00;13.45;;;3.10;;
20511;SDS011;10414;52.074;5.126;2024-02-21T01:41:27;10.70;;;2.65;;
20511;SDS011;10414;52.074;5.126;2024-02-21T01:43:56;14.98;;;3.17;;
20511;SDS011;10414;52.074;5.126;2024-02-21T01:46:22;10.18;;;3.08;;
20511;SDS011;10414;52.074;5.126;2024-02-21T01:48:53;9.80;;;3.17;;
20511;SDS011;10414;52.074;5.126;2024-02-21T01:51:20;9.90;;;3.33;;
20511;SDS011;10414;52.074;5.126;2024-02-21T01:53:47;13.98;;;3.58;;
20511;SDS011;10414;52.074;5.126;2024-02-21T01:56:17;9.65;;;3.17;;
20511;SDS011;10414;52.074;5.126;2024-02-21T01:58:44;12.63;;;3.42;;
20511;SDS011;10414;52.074;5.126;2024-02-21T02:01:12;19.60;;;5.20;;
20511;SDS011;10414;52.074;5.126;2024-02-21T02:03:39;11.65;;;3.60;;
20511;SDS011;10414;52.074;5.126;2024-02-21T02:06:06;12.43;;;3.47;;
20511;SDS011;10414;52.074;5.126;2024-02-21T02:08:33;12.10;;;3.17;;
20511;SDS011;10414;52.074;5.126;2024-02-21T02:11:00;12.32;;;3.50;;
20511;SDS011;10414;52.074;5.126;2024-02-21T02:13:29;16.38;;;4.30;;
20511;SDS011;10414;52.074;5.126;2024-02-21T02:15:55;14.30;;;3.80;;
20511;SDS011;10414;52.074;5.126;2024-02-21T02:18:22;13.57;;;4.07;;
20511;SDS011;10414;52.074;5.126;2024-02-21T02:20:49;14.90;;;4.05;;
20511;SDS011;10414;52.074;5.126;2024-02-21T02:23:20;10.15;;;4.10;;
20511;SDS011;10414;52.074;5.126;2024-02-21T02:25:48;13.60;;;4.03;;
20511;SDS011;10414;52.074;5.126;2024-02-21T02:28:17;15.50;;;4.07;;
20511;SDS011;10414;52.074;5.126;2024-02-21T02:30:45;13.02;;;3.90;;
20511;SDS011;10414;52.074;5.126;2024-02-21T02:33:12;16.63;;;3.95;;
20511;SDS011;10414;52.074;5.126;2024-02-21T02:35:39;18.88;;;4.25;;
20511;SDS011;10414;52.074;5.126;2024-02-21T02:38:06;15.23;;;3.90;;
20511;SDS011;10414;52.074;5.126;2024-02-21T02:40:34;9.73;;;3.67;;
20511;SDS011;10414;52.074;5.126;2024-02-21T02:43:01;13.48;;;3.88;;
20511;SDS011;10414;52.074;5.126;2024-02-21T02:45:28;12.85;;;3.67;;
20511;SDS011;10414;52.074;5.126;2024-02-21T02:47:56;14.95;;;3.90;;
20511;SDS011;10414;52.074;5.126;2024-02-21T02:50:24;18.20;;;3.72;;
20511;SDS011;10414;52.074;5.126;2024-02-21T02:52:51;18.00;;;3.17;;
20511;SDS011;10414;52.074;5.126;2024-02-21T02:55:19;12.10;;;4.00;;
20511;SDS011;10414;52.074;5.126;2024-02-21T02:57:47;10.45;;;3.50;;
20511;SDS011;10414;52.074;5.126;2024-02-21T03:00:14;7.95;;;3.25;;
20511;SDS011;10414;52.074;5.126;2024-02-21T03:02:43;15.00;;;3.05;;
20511;SDS011;10414;52.074;5.126;2024-02-21T03:05:13;12.75;;;3.28;;
20511;SDS011;10414;52.074;5.126;2024-02-21T03:07:41;9.82;;;3.08;;
20511;SDS011;10414;52.074;5.126;2024-02-21T03:10:08;15.05;;;3.85;;
20511;SDS011;10414;52.074;5.126;2024-02-21T03:12:36;16.27;;;4.05;;
20511;SDS011;10414;52.074;5.126;2024-02-21T03:15:05;14.20;;;4.10;;
20511;SDS011;10414;52.074;5.126;2024-02-21T03:17:32;12.95;;;3.53;;
20511;SDS011;10414;52.074;5.126;2024-02-21T03:20:00;11.82;;;3.78;;
20511;SDS011;10414;52.074;5.126;2024-02-21T03:22:30;10.30;;;3.13;;
20511;SDS011;10414;52.074;5.126;2024-02-21T03:24:57;11.50;;;3.55;;
20511;SDS011;10414;52.074;5.126;2024-02-21T03:27:23;13.20;;;3.67;;
20511;SDS011;10414;52.074;5.126;2024-02-21T03:29:50;11.88;;;3.70;;
20511;SDS011;10414;52.074;5.126;2024-02-21T03:32:18;16.35;;;3.85;;
20511;SDS011;10414;52.074;5.126;2024-02-21T03:34:45;10.98;;;4.03;;
20511;SDS011;10414;52.074;5.126;2024-02-21T03:37:12;8.95;;;3.50;;
20511;SDS011;10414;52.074;5.126;2024-02-21T03:39:39;12.48;;;3.78;;
20511;SDS011;10414;52.074;5.126;2024-02-21T03:42:06;12.18;;;4.18;;
20511;SDS011;10414;52.074;5.126;2024-02-21T03:44:33;9.93;;;3.45;;
20511;SDS011;10414;52.074;5.126;2024-02-21T03:47:00;12.40;;;3.78;;
20511;SDS011;10414;52.074;5.126;2024-02-21T03:49:28;13.57;;;3.78;;
20511;SDS011;10414;52.074;5.126;2024-02-21T03:51:55;12.60;;;3.50;;
20511;SDS011;10414;52.074;5.126;2024-02-21T03:54:22;12.13;;;3.70;;
20511;SDS011;10414;52.074;5.126;2024-02-21T03:56:49;12.10;;;3.28;;
20511;SDS011;10414;52.074;5.126;2024-02-21T03:59:16;14.43;;;3.72;;
20511;SDS011;10414;52.074;5.126;2024-02-21T04:01:43;11.07;;;3.38;;
20511;SDS011;10414;52.074;5.126;2024-02-21T04:04:10;11.68;;;3.33;;
20511;SDS011;10414;52.074;5.126;2024-02-21T04:06:45;10.13;;;3.28;;
20511;SDS011;10414;52.074;5.126;2024-02-21T04:09:13;10.27;;;3.45;;
20511;SDS011;10414;52.074;5.126;2024-02-21T04:11:40;9.98;;;3.65;;
20511;SDS011;10414;52.074;5.126;2024-02-21T04:14:07;12.18;;;3.97;;
20511;SDS011;10414;52.074;5.126;2024-02-21T04:16:34;13.40;;;3.78;;
20511;SDS011;10414;52.074;5.126;2024-02-21T04:19:01;12.05;;;4.00;;
20511;SDS011;10414;52.074;5.126;2024-02-21T04:21:28;17.27;;;4.13;;
20511;SDS011;10414;52.074;5.126;2024-02-21T04:23:56;8.82;;;3.33;;
20511;SDS011;10414;52.074;5.126;2024-02-21T04:26:23;11.90;;;3.85;;
20511;SDS011;10414;52.074;5.126;2024-02-21T04:28:50;9.95;;;4.00;;
20511;SDS011;10414;52.074;5.126;2024-02-21T04:31:17;8.48;;;4.18;;
20511;SDS011;10414;52.074;5.126;2024-02-21T04:33:44;12.20;;;4.63;;
20511;SDS011;10414;52.074;5.126;2024-02-21T04:36:11;10.50;;;4.00;;
20511;SDS011;10414;52.074;5.126;2024-02-21T04:38:38;13.57;;;4.43;;
20511;SDS011;10414;52.074;5.126;2024-02-21T04:41:07;9.65;;;3.83;;
20511;SDS011;10414;52.074;5.126;2024-02-21T04:43:34;14.52;;;4.38;;
20511;SDS011;10414;52.074;5.126;2024-02-21T04:46:01;11.85;;;4.63;;
20511;SDS011;10414;52.074;5.126;2024-02-21T04:48:28;15.32;;;4.78;;
20511;SDS011;10414;52.074;5.126;2024-02-21T04:50:55;10.93;;;4.70;;
20511;SDS011;10414;52.074;5.126;2024-02-21T04:53:21;11.80;;;4.63;;
20511;SDS011;10414;52.074;5.126;2024-02-21T04:55:48;14.40;;;5.28;;
20511;SDS011;10414;52.074;5.126;2024-02-21T04:58:17;12.95;;;5.20;;
20511;SDS011;10414;52.074;5.126;2024-02-21T05:00:43;14.50;;;5.50;;
20511;SDS011;10414;52.074;5.126;2024-02-21T05:03:10;13.40;;;5.40;;
20511;SDS011;10414;52.074;5.126;2024-02-21T05:05:37;13.90;;;5.50;;
20511;SDS011;10414;52.074;5.126;2024-02-21T05:08:04;14.15;;;4.95;;
20511;SDS011;10414;52.074;5.126;2024-02-21T05:10:31;11.82;;;5.00;;
20511;SDS011;10414;52.074;5.126;2024-02-21T05:12:58;11.30;;;4.95;;
20511;SDS011;10414;52.074;5.126;2024-02-21T05:15:26;14.70;;;4.78;;
20511;SDS011;10414;52.074;5.126;2024-02-21T05:17:53;11.10;;;5.38;;
20511;SDS011;10414;52.074;5.126;2024-02-21T05:20:20;15.27;;;5.10;;
20511;SDS011;10414;52.074;5.126;2024-02-21T05:22:47;12.63;;;4.80;;
20511;SDS011;10414;52.074;5.126;2024-02-21T05:25:14;12.15;;;5.28;;
20511;SDS011;10414;52.074;5.126;2024-02-21T05:27:40;12.25;;;4.88;;
20511;SDS011;10414;52.074;5.126;2024-02-21T05:30:07;11.68;;;4.95;;
20511;SDS011;10414;52.074;5.126;2024-02-21T05:32:36;11.15;;;4.70;;
20511;SDS011;10414;52.074;5.126;2024-02-21T05:35:03;10.85;;;4.63;;
20511;SDS011;10414;52.074;5.126;2024-02-21T05:37:30;16.27;;;5.32;;
20511;SDS011;10414;52.074;5.126;2024-02-21T05:39:57;11.70;;;4.93;;
20511;SDS011;10414;52.074;5.126;2024-02-21T05:42:24;14.32;;;5.00;;
20511;SDS011;10414;52.074;5.126;2024-02-21T05:44:50;11.13;;;4.72;;
20511;SDS011;10414;52.074;5.126;2024-02-21T05:47:17;11.82;;;4.40;;
20511;SDS011;10414;52.074;5.126;2024-02-21T05:49:47;10.65;;;4.72;;
20511;SDS011;10414;52.074;5.126;2024-02-21T05:52:14;13.15;;;5.07;;
20511;SDS011;10414;52.074;5.126;2024-02-21T05:54:41;14.00;;;5.80;;
20511;SDS011;10414;52.074;5.126;2024-02-21T05:57:08;11.07;;;5.32;;
20511;SDS011;10414;52.074;5.126;2024-02-21T05:59:35;15.75;;;6.03;;
20511;SDS011;10414;52.074;5.126;2024-02-21T06:02:05;18.02;;;5.68;;
20511;SDS011;10414;52.074;5.126;2024-02-21T06:04:32;15.30;;;5.63;;
20511;SDS011;10414;52.074;5.126;2024-02-21T06:07:00;15.63;;;5.53;;
20511;SDS011;10414;52.074;5.126;2024-02-21T06:09:27;17.92;;;5.80;;
20511;SDS011;10414;52.074;5.126;2024-02-21T06:11:54;13.18;;;6.05;;
20511;SDS011;10414;52.074;5.126;2024-02-21T06:14:20;17.90;;;6.65;;
20511;SDS011;10414;52.074;5.126;2024-02-21T06:16:47;15.90;;;6.35;;
20511;SDS011;10414;52.074;5.126;2024-02-21T06:19:14;21.45;;;7.80;;
20511;SDS011;10414;52.074;5.126;2024-02-21T06:21:41;17.52;;;7.55;;
20511;SDS011;10414;52.074;5.126;2024-02-21T06:24:09;14.10;;;6.75;;
20511;SDS011;10414;52.074;5.126;2024-02-21T06:26:37;20.27;;;8.20;;
20511;SDS011;10414;52.074;5.126;2024-02-21T06:29:05;16.33;;;7.38;;
20511;SDS011;10414;52.074;5.126;2024-02-21T06:31:32;14.85;;;6.78;;
20511;SDS011;10414;52.074;5.126;2024-02-21T06:33:59;19.33;;;6.45;;
20511;SDS011;10414;52.074;5.126;2024-02-21T06:36:26;19.15;;;7.32;;
20511;SDS011;10414;52.074;5.126;2024-02-21T06:38:53;17.00;;;7.50;;
20511;SDS011;10414;52.074;5.126;2024-02-21T06:41:21;16.20;;;6.82;;
20511;SDS011;10414;52.074;5.126;2024-02-21T06:43:48;18.30;;;6.95;;
20511;SDS011;10414;52.074;5.126;2024-02-21T06:46:22;17.08;;;7.72;;
20511;SDS011;10414;52.074;5.126;2024-02-21T06:48:50;19.52;;;6.78;;
20511;SDS011;10414;52.074;5.126;2024-02-21T06:51:17;15.77;;;6.88;;
20511;SDS011;10414;52.074;5.126;2024-02-21T06:53:44;18.85;;;8.43;;
20511;SDS011;10414;52.074;5.126;2024-02-21T06:56:10;16.02;;;7.03;;
20511;SDS011;10414;52.074;5.126;2024-02-21T06:58:39;15.38;;;7.75;;
20511;SDS011;10414;52.074;5.126;2024-02-21T07:01:06;16.15;;;7.18;;
20511;SDS011;10414;52.074;5.126;2024-02-21T07:03:33;16.25;;;7.35;;
20511;SDS011;10414;52.074;5.126;2024-02-21T07:06:00;19.20;;;7.10;;
20511;SDS011;10414;52.074;5.126;2024-02-21T07:08:26;17.13;;;6.55;;
20511;SDS011;10414;52.074;5.126;2024-02-21T07:10:53;20.00;;;7.22;;
20511;SDS011;10414;52.074;5.126;2024-02-21T07:13:20;19.38;;;7.22;;
20511;SDS011;10414;52.074;5.126;2024-02-21T07:15:49;19.50;;;7.20;;
20511;SDS011;10414;52.074;5.126;2024-02-21T07:18:16;20.90;;;7.15;;
20511;SDS011;10414;52.074;5.126;2024-02-21T07:20:43;23.95;;;7.80;;
20511;SDS011;10414;52.074;5.126;2024-02-21T07:23:10;19.27;;;7.50;;
20511;SDS011;10414;52.074;5.126;2024-02-21T07:25:36;25.40;;;9.35;;
20511;SDS011;10414;52.074;5.126;2024-02-21T07:28:04;16.42;;;7.68;;
20511;SDS011;10414;52.074;5.126;2024-02-21T07:30:31;17.33;;;7.20;;
20511;SDS011;10414;52.074;5.126;2024-02-21T07:32:59;21.08;;;7.07;;
20511;SDS011;10414;52.074;5.126;2024-02-21T07:35:26;19.13;;;6.93;;
20511;SDS011;10414;52.074;5.126;2024-02-21T07:37:53;18.90;;;7.38;;
20511;SDS011;10414;52.074;5.126;2024-02-21T07:40:20;21.42;;;7.63;;
20511;SDS011;10414;52.074;5.126;2024-02-21T07:42:47;17.23;;;7.70;;
20511;SDS011;10414;52.074;5.126;2024-02-21T07:45:14;19.73;;;7.40;;
20511;SDS011;10414;52.074;5.126;2024-02-21T07:47:41;21.15;;;7.50;;
20511;SDS011;10414;52.074;5.126;2024-02-21T07:50:09;23.75;;;8.13;;
20511;SDS011;10414;52.074;5.126;2024-02-21T07:52:36;16.33;;;7.30;;
20511;SDS011;10414;52.074;5.126;2024-02-21T07:55:03;18.73;;;7.68;;
20511;SDS011;10414;52.074;5.126;2024-02-21T07:57:30;18.85;;;7.63;;
20511;SDS011;10414;52.074;5.126;2024-02-21T07:59:57;18.35;;;7.55;;
20511;SDS011;10414;52.074;5.126;2024-02-21T08:02:24;21.23;;;7.32;;
20511;SDS011;10414;52.074;5.126;2024-02-21T08:04:51;21.33;;;7.22;;
20511;SDS011;10414;52.074;5.126;2024-02-21T08:07:19;21.50;;;7.78;;
20511;SDS011;10414;52.074;5.126;2024-02-21T08:09:46;16.45;;;7.07;;
20511;SDS011;10414;52.074;5.126;2024-02-21T08:12:13;17.33;;;6.93;;
20511;SDS011;10414;52.074;5.126;2024-02-21T08:14:39;21.02;;;7.00;;
20511;SDS011;10414;52.074;5.126;2024-02-21T08:17:06;16.65;;;7.32;;
20511;SDS011;10414;52.074;5.126;2024-02-21T08:19:33;18.63;;;7.03;;
20511;SDS011;10414;52.074;5.126;2024-02-21T08:22:00;17.60;;;6.25;;
20511;SDS011;10414;52.074;5.126;2024-02-21T08:24:29;19.85;;;6.97;;
20511;SDS011;10414;52.074;5.126;2024-02-21T08:26:56;21.00;;;7.32;;
20511;SDS011;10414;52.074;5.126;2024-02-21T08:29:23;20.92;;;7.80;;
20511;SDS011;10414;52.074;5.126;2024-02-21T08:31:50;17.17;;;6.65;;
20511;SDS011;10414;52.074;5.126;2024-02-21T08:34:17;16.30;;;7.88;;
20511;SDS011;10414;52.074;5.126;2024-02-21T08:36:44;21.38;;;8.35;;
20511;SDS011;10414;52.074;5.126;2024-02-21T08:39:11;19.77;;;8.10;;
20511;SDS011;10414;52.074;5.126;2024-02-21T08:41:43;17.58;;;7.03;;
20511;SDS011;10414;52.074;5.126;2024-02-21T08:44:09;17.00;;;7.72;;
20511;SDS011;10414;52.074;5.126;2024-02-21T08:46:36;19.10;;;7.50;;
20511;SDS011;10414;52.074;5.126;2024-02-21T08:49:05;16.30;;;7.57;;
20511;SDS011;10414;52.074;5.126;2024-02-21T08:51:32;18.50;;;7.05;;
20511;SDS011;10414;52.074;5.126;2024-02-21T08:53:59;19.75;;;7.80;;
20511;SDS011;10414;52.074;5.126;2024-02-21T08:56:27;18.13;;;7.13;;
20511;SDS011;10414;52.074;5.126;2024-02-21T08:58:57;18.08;;;7.25;;
20511;SDS011;10414;52.074;5.126;2024-02-21T09:01:24;15.38;;;7.65;;
20511;SDS011;10414;52.074;5.126;2024-02-21T09:03:51;17.38;;;7.15;;
20511;SDS011;10414;52.074;5.126;2024-02-21T09:06:18;16.10;;;7.35;;
20511;SDS011;10414;52.074;5.126;2024-02-21T09:08:45;15.70;;;6.70;;
20511;SDS011;10414;52.074;5.126;2024-02-21T09:11:12;16.17;;;6.90;;
20511;SDS011;10414;52.074;5.126;2024-02-21T09:13:39;18.50;;;7.07;;
20511;SDS011;10414;52.074;5.126;2024-02-21T09:16:08;20.75;;;6.70;;
20511;SDS011;10414;52.074;5.126;2024-02-21T09:18:35;14.65;;;7.07;;
20511;SDS011;10414;52.074;5.126;2024-02-21T09:21:02;14.30;;;6.15;;
20511;SDS011;10414;52.074;5.126;2024-02-21T09:23:29;17.63;;;6.15;;
20511;SDS011;10414;52.074;5.126;2024-02-21T09:25:56;17.48;;;6.60;;
20511;SDS011;10414;52.074;5.126;2024-02-21T09:28:25;15.73;;;6.05;;
20511;SDS011;10414;52.074;5.126;2024-02-21T09:30:52;16.73;;;6.55;;
20511;SDS011;10414;52.074;5.126;2024-02-21T09:33:20;15.85;;;6.53;;
20511;SDS011;10414;52.074;5.126;2024-02-21T09:35:47;16.50;;;6.03;;
20511;SDS011;10414;52.074;5.126;2024-02-21T09:38:14;18.05;;;6.00;;
20511;SDS011;10414;52.074;5.126;2024-02-21T09:40:41;16.83;;;5.40;;
20511;SDS011;10414;52.074;5.126;2024-02-21T09:43:08;18.63;;;5.35;;
20511;SDS011;10414;52.074;5.126;2024-02-21T09:45:34;14.60;;;5.47;;
20511;SDS011;10414;52.074;5.126;2024-02-21T09:50:56;12.63;;;5.53;;
20511;SDS011;10414;52.074;5.126;2024-02-21T09:53:25;14.20;;;5.40;;
20511;SDS011;10414;52.074;5.126;2024-02-21T09:55:53;15.05;;;5.15;;
20511;SDS011;10414;52.074;5.126;2024-02-21T09:58:21;13.20;;;5.22;;
20511;SDS011;10414;52.074;5.126;2024-02-21T10:00:51;15.25;;;5.65;;
20511;SDS011;10414;52.074;5.126;2024-02-21T10:03:18;13.50;;;4.65;;
20511;SDS011;10414;52.074;5.126;2024-02-21T10:05:48;9.45;;;4.38;;
20511;SDS011;10414;52.074;5.126;2024-02-21T10:08:16;14.25;;;5.30;;
20511;SDS011;10414;52.074;5.126;2024-02-21T10:10:43;10.57;;;4.68;;
20511;SDS011;10414;52.074;5.126;2024-02-21T10:13:10;14.30;;;4.72;;
20511;SDS011;10414;52.074;5.126;2024-02-21T10:15:37;12.27;;;5.07;;
20511;SDS011;10414;52.074;5.126;2024-02-21T10:18:04;8.48;;;4.47;;
20511;SDS011;10414;52.074;5.126;2024-02-21T10:20:31;12.60;;;5.25;;
20511;SDS011;10414;52.074;5.126;2024-02-21T10:23:04;12.07;;;5.07;;
20511;SDS011;10414;52.074;5.126;2024-02-21T10:25:34;11.75;;;4.43;;
20511;SDS011;10414;52.074;5.126;2024-02-21T10:28:03;11.10;;;5.03;;
20511;SDS011;10414;52.074;5.126;2024-02-21T10:30:30;10.95;;;4.70;;
20511;SDS011;10414;52.074;5.126;2024-02-21T10:32:57;10.05;;;4.43;;
20511;SDS011;10414;52.074;5.126;2024-02-21T10:35:27;11.18;;;4.07;;
20511;SDS011;10414;52.074;5.126;2024-02-21T10:37:55;7.68;;;4.28;;
20511;SDS011;10414;52.074;5.126;2024-02-21T10:40:24;11.43;;;4.50;;
20511;SDS011;10414;52.074;5.126;2024-02-21T10:42:53;10.70;;;4.60;;
20511;SDS011;10414;52.074;5.126;2024-02-21T10:45:25;10.63;;;4.32;;
20511;SDS011;10414;52.074;5.126;2024-02-21T10:47:59;9.80;;;3.90;;
20511;SDS011;10414;52.074;5.126;2024-02-21T10:50:32;7.85;;;3.75;;
20511;SDS011;10414;52.074;5.126;2024-02-21T10:53:09;7.65;;;3.67;;
20511;SDS011;10414;52.074;5.126;2024-02-21T10:55:46;10.25;;;3.60;;
20511;SDS011;10414;52.074;5.126;2024-02-21T10:58:22;8.55;;;3.83;;
20511;SDS011;10414;52.074;5.126;2024-02-21T11:00:50;8.30;;;3.65;;
20511;SDS011;10414;52.074;5.126;2024-02-21T11:03:18;9.02;;;4.00;;
20511;SDS011;10414;52.074;5.126;2024-02-21T11:05:46;7.93;;;3.92;;
20511;SDS011;10414;52.074;5.126;2024-02-21T11:08:13;7.53;;;3.90;;
20511;SDS011;10414;52.074;5.126;2024-02-21T11:10:40;9.65;;;3.88;;
20511;SDS011;10414;52.074;5.126;2024-02-21T11:13:13;9.73;;;4.70;;
20511;SDS011;10414;52.074;5.126;2024-02-21T11:15:40;10.73;;;4.85;;
20511;SDS011;10414;52.074;5.126;2024-02-21T11:18:07;13.20;;;5.45;;
20511;SDS011;10414;52.074;5.126;2024-02-21T11:20:35;10.73;;;5.13;;
20511;SDS011;10414;52.074;5.126;2024-02-21T11:23:03;10.85;;;4.80;;
20511;SDS011;10414;52.074;5.126;2024-02-21T11:25:30;11.27;;;4.68;;
20511;SDS011;10414;52.074;5.126;2024-02-21T11:28:00;10.10;;;5.50;;
20511;SDS011;10414;52.074;5.126;2024-02-21T11:30:29;11.88;;;5.43;;
20511;SDS011;10414;52.074;5.126;2024-02-21T11:33:01;13.25;;;5.60;;
20511;SDS011;10414;52.074;5.126;2024-02-21T11:35:30;10.77;;;5.30;;
20511;SDS011;10414;52.074;5.126;2024-02-21T11:38:07;15.18;;;5.72;;
20511;SDS011;10414;52.074;5.126;2024-02-21T11:40:35;12.68;;;4.85;;
20511;SDS011;10414;52.074;5.126;2024-02-21T11:43:05;14.63;;;5.72;;
20511;SDS011;10414;52.074;5.126;2024-02-21T11:45:32;11.15;;;5.53;;
20511;SDS011;10414;52.074;5.126;2024-02-21T11:47:59;10.55;;;5.68;;
20511;SDS011;10414;52.074;5.126;2024-02-21T11:50:28;11.05;;;5.50;;
20511;SDS011;10414;52.074;5.126;2024-02-21T11:52:55;11.30;;;6.25;;
20511;SDS011;10414;52.074;5.126;2024-02-21T11:55:23;10.93;;;5.78;;
20511;SDS011;10414;52.074;5.126;2024-02-21T11:57:50;11.43;;;4.82;;
20511;SDS011;10414;52.074;5.126;2024-02-21T12:00:19;10.82;;;5.57;;
20511;SDS011;10414;52.074;5.126;2024-02-21T12:02:46;11.23;;;5.57;;
20511;SDS011;10414;52.074;5.126;2024-02-21T12:05:15;9.60;;;4.80;;
20511;SDS011;10414;52.074;5.126;2024-02-21T12:07:42;9.57;;;4.97;;
20511;SDS011;10414;52.074;5.126;2024-02-21T12:10:10;10.25;;;5.10;;
20511;SDS011;10414;52.074;5.126;2024-02-21T12:12:37;11.52;;;4.65;;
20511;SDS011;10414;52.074;5.126;2024-02-21T12:15:04;10.73;;;4.65;;
20511;SDS011;10414;52.074;5.126;2024-02-21T12:17:33;10.43;;;4.93;;
20511;SDS011;10414;52.074;5.126;2024-02-21T12:20:01;9.75;;;4.20;;
20511;SDS011;10414;52.074;5.126;2024-02-21T12:22:30;10.07;;;4.78;;
20511;SDS011;10414;52.074;5.126;2024-02-21T12:24:58;10.13;;;4.63;;
20511;SDS011;10414;52.074;5.126;2024-02-21T12:27:25;10.25;;;4.63;;
20511;SDS011;10414;52.074;5.126;2024-02-21T12:29:52;10.35;;;4.38;;
20511;SDS011;10414;52.074;5.126;2024-02-21T12:32:19;9.73;;;4.65;;
20511;SDS011;10414;52.074;5.126;2024-02-21T12:34:47;7.70;;;5.00;;
20511;SDS011;10414;52.074;5.126;2024-02-21T12:37:14;14.57;;;4.93;;
20511;SDS011;10414;52.074;5.126;2024-02-21T12:39:41;11.02;;;4.13;;
20511;SDS011;10414;52.074;5.126;2024-02-21T12:42:09;10.32;;;4.30;;
20511;SDS011;10414;52.074;5.126;2024-02-21T12:44:37;7.65;;;3.88;;
20511;SDS011;10414;52.074;5.126;2024-02-21T12:47:04;12.68;;;4.40;;
20511;SDS011;10414;52.074;5.126;2024-02-21T12:49:31;8.05;;;4.00;;
20511;SDS011;10414;52.074;5.126;2024-02-21T12:51:59;9.13;;;3.97;;
20511;SDS011;10414;52.074;5.126;2024-02-21T12:54:26;9.75;;;4.10;;
20511;SDS011;10414;52.074;5.126;2024-02-21T12:56:52;8.05;;;3.78;;
20511;SDS011;10414;52.074;5.126;2024-02-21T12:59:19;10.13;;;4.07;;
20511;SDS011;10414;52.074;5.126;2024-02-21T13:01:46;10.98;;;4.13;;
20511;SDS011;10414;52.074;5.126;2024-02-21T13:04:13;9.18;;;4.40;;
20511;SDS011;10414;52.074;5.126;2024-02-21T13:06:40;8.30;;;3.78;;
20511;SDS011;10414;52.074;5.126;2024-02-21T13:09:08;8.40;;;3.95;;
20511;SDS011;10414;52.074;5.126;2024-02-21T13:11:37;7.72;;;3.67;;
20511;SDS011;10414;52.074;5.126;2024-02-21T13:14:04;9.55;;;3.70;;
20511;SDS011;10414;52.074;5.126;2024-02-21T13:16:30;8.52;;;4.00;;
20511;SDS011;10414;52.074;5.126;2024-02-21T13:18:59;7.63;;;3.30;;
20511;SDS011;10414;52.074;5.126;2024-02-21T13:21:26;8.15;;;3.50;;
20511;SDS011;10414;52.074;5.126;2024-02-21T13:23:53;7.13;;;3.20;;
20511;SDS011;10414;52.074;5.126;2024-02-21T13:26:21;9.70;;;3.60;;
20511;SDS011;10414;52.074;5.126;2024-02-21T13:28:48;7.35;;;3.75;;
20511;SDS011;10414;52.074;5.126;2024-02-21T13:31:15;12.88;;;3.28;;
20511;SDS011;10414;52.074;5.126;2024-02-21T13:33:42;9.43;;;3.42;;
20511;SDS011;10414;52.074;5.126;2024-02-21T13:36:09;6.13;;;2.90;;
20511;SDS011;10414;52.074;5.126;2024-02-21T13:38:36;8.63;;;3.72;;
20511;SDS011;10414;52.074;5.126;2024-02-21T13:41:04;10.38;;;3.47;;
20511;SDS011;10414;52.074;5.126;2024-02-21T13:43:33;7.75;;;4.18;;
20511;SDS011;10414;52.074;5.126;2024-02-21T13:46:00;9.18;;;3.88;;
20511;SDS011;10414;52.074;5.126;2024-02-21T13:48:30;7.40;;;4.05;;
20511;SDS011;10414;52.074;5.126;2024-02-21T13:50:58;8.55;;;4.32;;
20511;SDS011;10414;52.074;5.126;2024-02-21T13:53:27;13.95;;;3.92;;
20511;SDS011;10414;52.074;5.126;2024-02-21T13:55:54;7.95;;;3.40;;
20511;SDS011;10414;52.074;5.126;2024-02-21T13:58:20;9.95;;;3.13;;
20511;SDS011;10414;52.074;5.126;2024-02-21T14:00:49;11.77;;;3.75;;
20511;SDS011;10414;52.074;5.126;2024-02-21T14:03:16;9.40;;;3.60;;
20511;SDS011;10414;52.074;5.126;2024-02-21T14:05:44;10.52;;;3.67;;
20511;SDS011;10414;52.074;5.126;2024-02-21T14:08:13;9.52;;;3.50;;
20511;SDS011;10414;52.074;5.126;2024-02-21T14:10:40;8.75;;;3.67;;
20511;SDS011;10414;52.074;5.126;2024-02-21T14:13:07;11.00;;;3.80;;
20511;SDS011;10414;52.074;5.126;2024-02-21T14:15:34;9.00;;;3.70;;
20511;SDS011;10414;52.074;5.126;2024-02-21T14:18:04;9.85;;;4.22;;
20511;SDS011;10414;52.074;5.126;2024-02-21T14:20:34;8.27;;;3.67;;
20511;SDS011;10414;52.074;5.126;2024-02-21T14:23:01;11.07;;;3.40;;
20511;SDS011;10414;52.074;5.126;2024-02-21T14:25:29;8.05;;;3.58;;
20511;SDS011;10414;52.074;5.126;2024-02-21T14:27:56;9.93;;;4.20;;
20511;SDS011;10414;52.074;5.126;2024-02-21T14:30:25;9.00;;;3.83;;
20511;SDS011;10414;52.074;5.126;2024-02-21T14:32:52;8.35;;;3.42;;
20511;SDS011;10414;52.074;5.126;2024-02-21T14:35:20;6.78;;;3.42;;
20511;SDS011;10414;52.074;5.126;2024-02-21T14:37:47;9.70;;;3.55;;
20511;SDS011;10414;52.074;5.126;2024-02-21T14:40:15;12.60;;;3.90;;
20511;SDS011;10414;52.074;5.126;2024-02-21T14:42:41;8.15;;;3.42;;